Time;durP1;ratioP1;P1;durP2;ratioP2;P2;SDS_P1;SDS_P2;PMS_P1;PMS_P2;Temp;Humidity;BMP_temperature;BMP_pressure;BME280_temperature;BME280_humidity;BME280_pressure;Samples;Min_cycle;Max_cycle;Signal;HPM_P1;HPM_P2
2023/04/06 06:01:19;;;;;;;11.67;7.30;;;-0.10;99.90;;;;;;5132156;27;20269;-75
2023/04/06 06:13:24;;;;;;;8.70;6.10;;;0.30;99.90;;;;;;5131785;27;20288;-76
2023/04/06 06:22:06;;;;;;;12.20;8.17;;;0.50;99.90;;;;;;5131905;27;20293;-75
2023/04/06 06:27:46;;;;;;;9.63;7.43;;;0.70;99.90;;;;;;5132975;27;20275;-75
2023/04/06 06:31:57;;;;;;;8.50;6.47;;;1.00;99.90;;;;;;5132779;27;20284;-75
2023/04/06 06:35:45;;;;;;;9.43;7.27;;;1.00;99.90;;;;;;5132834;27;20272;-76
2023/04/06 06:39:47;;;;;;;9.77;6.63;;;1.10;99.90;;;;;;5111871;27;21002;-75
2023/04/06 06:44:01;;;;;;;15.47;10.07;;;1.30;99.90;;;;;;5132790;27;20746;-76
2023/04/06 06:47:37;;;;;;;15.13;8.27;;;1.30;99.90;;;;;;5132830;27;20267;-75
2023/04/06 06:51:33;;;;;;;12.70;7.70;;;1.60;99.90;;;;;;5132199;27;20748;-75
2023/04/06 06:56:35;;;;;;;9.53;7.40;;;1.70;99.90;;;;;;5133101;27;20604;-75
2023/04/06 06:59:01;;;;;;;8.13;6.30;;;1.80;99.90;;;;;;5113541;28;20431;-75
2023/04/06 07:01:27;;;;;;;8.73;6.57;;;1.80;99.90;;;;;;5131852;28;20499;-75
2023/04/06 07:03:52;;;;;;;11.53;7.50;;;1.90;99.90;;;;;;5131752;28;20191;-75
2023/04/06 07:06:18;;;;;;;8.97;6.70;;;2.10;99.90;;;;;;5132235;27;20170;-76
2023/04/06 07:08:44;;;;;;;7.47;6.70;;;2.30;99.90;;;;;;5130585;28;20290;-76
2023/04/06 07:11:09;;;;;;;9.10;7.10;;;2.60;99.90;;;;;;5131633;27;20527;-76
2023/04/06 07:13:35;;;;;;;8.17;7.33;;;3.00;99.90;;;;;;5131907;27;20270;-76
2023/04/06 07:16:01;;;;;;;9.33;6.93;;;3.50;99.90;;;;;;5130397;28;20608;-76
2023/04/06 07:18:26;;;;;;;8.93;6.67;;;3.90;99.90;;;;;;5131652;27;20174;-76
2023/04/06 07:20:52;;;;;;;10.20;6.93;;;4.20;99.90;;;;;;5131552;27;20606;-76
2023/04/06 07:23:18;;;;;;;10.17;7.13;;;4.50;99.90;;;;;;5131455;27;20225;-76
2023/04/06 07:25:43;;;;;;;8.20;5.93;;;4.60;99.90;;;;;;5131385;27;20200;-76
2023/04/06 07:28:10;;;;;;;10.93;6.00;;;4.80;99.90;;;;;;5131483;27;20299;-76
2023/04/06 07:30:37;;;;;;;7.10;5.90;;;5.00;99.90;;;;;;5131395;27;20212;-76
2023/04/06 07:33:03;;;;;;;7.20;6.13;;;5.20;99.90;;;;;;5131317;27;20206;-76
2023/04/06 07:35:29;;;;;;;11.57;6.23;;;5.60;99.20;;;;;;5131184;27;20681;-76
2023/04/06 07:37:56;;;;;;;9.53;6.67;;;6.10;96.70;;;;;;5131283;27;20167;-76
2023/04/06 07:40:22;;;;;;;7.30;6.10;;;6.70;96.10;;;;;;5129579;28;20593;-76
2023/04/06 07:42:47;;;;;;;8.70;6.20;;;6.50;93.40;;;;;;5131156;27;20195;-76
2023/04/06 07:45:14;;;;;;;10.17;6.70;;;6.00;94.50;;;;;;5131135;27;20191;-76
2023/04/06 07:47:40;;;;;;;6.40;5.67;;;5.60;95.60;;;;;;5131086;27;20212;-76
2023/04/06 07:50:06;;;;;;;7.93;6.10;;;5.30;94.30;;;;;;5130875;27;20169;-76
2023/04/06 07:52:32;;;;;;;7.30;5.40;;;5.20;95.60;;;;;;5130907;27;20595;-76
2023/04/06 07:54:58;;;;;;;6.50;5.43;;;5.30;94.00;;;;;;5130972;27;20212;-76
2023/04/06 07:57:24;;;;;;;10.20;5.80;;;5.00;94.10;;;;;;5130866;27;20677;-76
2023/04/06 07:59:50;;;;;;;7.20;5.97;;;5.20;94.50;;;;;;5130852;27;20198;-76
2023/04/06 08:02:15;;;;;;;8.00;5.60;;;5.50;94.80;;;;;;5130626;27;20595;-76
2023/04/06 08:04:41;;;;;;;6.87;5.67;;;6.60;92.70;;;;;;5130616;27;20263;-76
2023/04/06 08:07:07;;;;;;;6.20;5.27;;;8.10;90.00;;;;;;5121446;27;20183;-76
2023/04/06 08:09:33;;;;;;;6.80;6.00;;;9.30;85.30;;;;;;5115500;28;20190;-76
2023/04/06 08:11:59;;;;;;;9.13;6.40;;;10.10;81.90;;;;;;5115476;28;20199;-76
2023/04/06 08:14:24;;;;;;;7.87;5.53;;;10.40;83.40;;;;;;5116758;28;20205;-76
2023/04/06 08:16:50;;;;;;;8.07;5.90;;;10.90;70.30;;;;;;5116741;28;20640;-76
2023/04/06 08:19:18;;;;;;;8.97;6.30;;;11.00;69.30;;;;;;5115767;28;20247;-76
2023/04/06 08:21:45;;;;;;;10.57;6.37;;;11.50;69.00;;;;;;5116733;28;20655;-76
2023/04/06 08:24:11;;;;;;;9.30;5.90;;;12.10;66.90;;;;;;5115473;28;20172;-77
2023/04/06 08:26:37;;;;;;;6.57;5.60;;;12.70;63.40;;;;;;5116720;28;20204;-77
2023/04/06 08:29:03;;;;;;;7.70;5.73;;;12.50;65.10;;;;;;5116699;28;20191;-77
2023/04/06 08:31:30;;;;;;;9.40;6.50;;;12.50;65.30;;;;;;5116419;28;20168;-77
2023/04/06 08:33:56;;;;;;;8.03;5.93;;;12.60;66.00;;;;;;5115409;28;20186;-77
2023/04/06 08:36:22;;;;;;;6.80;6.10;;;13.00;60.20;;;;;;5115211;28;20285;-77
2023/04/06 08:38:49;;;;;;;7.33;6.03;;;13.60;59.30;;;;;;5115383;28;20256;-77
2023/04/06 08:41:19;;;;;;;10.40;6.50;;;13.70;59.70;;;;;;5116371;28;20536;-77
2023/04/06 08:43:50;;;;;;;6.43;5.73;;;13.60;56.40;;;;;;5115031;28;20203;-77
2023/04/06 08:46:15;;;;;;;6.33;5.30;;;13.50;57.60;;;;;;5115187;28;20171;-77
2023/04/06 08:48:42;;;;;;;10.63;5.87;;;13.40;56.20;;;;;;5116275;28;20176;-77
2023/04/06 08:51:09;;;;;;;6.40;5.50;;;13.60;61.50;;;;;;5115984;28;20222;-77
2023/04/06 08:53:36;;;;;;;8.87;5.83;;;14.00;59.90;;;;;;5116064;28;20188;-77
2023/04/06 08:56:03;;;;;;;5.83;5.23;;;12.50;54.90;;;;;;5114491;28;20208;-78
2023/04/06 08:58:40;;;;;;;6.77;6.03;;;11.20;60.80;;;;;;5116054;28;20171;-77
2023/04/06 09:01:08;;;;;;;7.30;6.43;;;10.20;63.30;;;;;;5115957;28;20160;-77
2023/04/06 09:03:39;;;;;;;9.83;7.57;;;9.70;64.50;;;;;;5114532;28;20581;-77
2023/04/06 09:06:06;;;;;;;7.43;5.60;;;9.00;64.30;;;;;;5116345;28;20160;-77
2023/04/06 09:08:34;;;;;;;7.83;6.27;;;9.30;66.40;;;;;;5115929;28;20171;-77
2023/04/06 09:11:03;;;;;;;7.17;5.77;;;9.70;64.30;;;;;;5115691;28;20305;-77
2023/04/06 09:13:29;;;;;;;5.87;4.93;;;9.50;59.90;;;;;;5115687;28;20196;-77
2023/04/06 09:16:03;;;;;;;10.00;5.90;;;10.30;59.80;;;;;;5115562;28;20282;-77
2023/04/06 09:18:33;;;;;;;5.97;5.37;;;11.00;61.20;;;;;;5113438;28;20166;-77
2023/04/06 09:21:02;;;;;;;8.83;5.90;;;10.70;60.00;;;;;;5114050;28;20539;-77
2023/04/06 09:23:29;;;;;;;6.60;4.53;;;10.70;59.30;;;;;;5114203;28;20241;-77
2023/04/06 09:26:14;;;;;;;8.90;5.43;;;10.80;58.30;;;;;;5114148;28;20184;-76
2023/04/06 09:28:51;;;;;;;5.70;4.80;;;10.70;57.50;;;;;;5115449;28;20514;-77
2023/04/06 09:31:24;;;;;;;7.37;5.07;;;9.60;58.20;;;;;;5113914;28;20199;-77
2023/04/06 09:33:51;;;;;;;8.30;5.87;;;9.70;65.90;;;;;;5115245;28;20240;-77
2023/04/06 09:36:18;;;;;;;8.13;6.17;;;9.50;62.10;;;;;;5115140;28;20184;-76
2023/04/06 09:38:56;;;;;;;9.07;6.43;;;9.20;65.50;;;;;;5115247;28;20167;-76
2023/04/06 09:41:30;;;;;;;8.90;5.70;;;8.80;63.00;;;;;;5114954;28;20179;-76
2023/04/06 09:44:03;;;;;;;7.10;4.80;;;8.40;64.20;;;;;;5113758;28;20202;-76
2023/04/06 09:46:32;;;;;;;7.53;5.33;;;8.10;64.10;;;;;;5115245;28;20640;-76
2023/04/06 09:48:59;;;;;;;6.73;4.83;;;7.80;63.90;;;;;;5115656;28;20625;-76
2023/04/06 09:51:29;;;;;;;5.17;4.43;;;8.30;65.60;;;;;;5114763;28;20259;-77
2023/04/06 09:54:00;;;;;;;7.20;4.73;;;9.30;62.70;;;;;;5114884;28;20286;-76
2023/04/06 09:56:28;;;;;;;11.67;4.93;;;9.40;62.70;;;;;;5114626;28;20690;-76
2023/04/06 09:59:02;;;;;;;6.97;5.17;;;10.30;61.60;;;;;;5113498;28;20175;-76
2023/04/06 10:01:30;;;;;;;6.90;4.87;;;11.00;58.40;;;;;;5113569;28;20243;-76
2023/04/06 10:04:01;;;;;;;7.97;5.30;;;11.30;58.40;;;;;;5114629;28;20197;-77
2023/04/06 10:06:32;;;;;;;7.07;4.53;;;11.60;57.80;;;;;;5115014;28;20248;-75
2023/04/06 10:08:59;;;;;;;7.40;4.43;;;11.70;55.40;;;;;;5115082;28;20227;-76
2023/04/06 10:11:25;;;;;;;7.00;5.10;;;12.10;58.50;;;;;;5114407;28;20178;-75
2023/04/06 10:13:51;;;;;;;5.40;4.90;;;12.50;58.20;;;;;;5114377;28;20195;-75
2023/04/06 10:16:17;;;;;;;6.93;4.80;;;11.90;55.60;;;;;;5114987;28;20664;-75
2023/04/06 10:18:50;;;;;;;6.50;5.90;;;11.00;55.90;;;;;;5114920;28;20163;-75
2023/04/06 10:21:21;;;;;;;6.13;5.20;;;11.20;58.80;;;;;;5114716;28;20163;-75
2023/04/06 10:23:50;;;;;;;5.33;4.50;;;12.00;57.70;;;;;;5113408;28;20571;-76
2023/04/06 10:26:17;;;;;;;6.87;5.20;;;12.20;55.40;;;;;;5115194;28;20171;-75
2023/04/06 10:28:45;;;;;;;7.60;5.23;;;10.90;54.50;;;;;;5113407;28;20179;-74
2023/04/06 10:31:11;;;;;;;5.17;4.67;;;9.60;58.40;;;;;;5113931;28;20598;-75
2023/04/06 10:33:36;;;;;;;7.33;4.90;;;9.50;60.10;;;;;;5113215;28;20274;-75
2023/04/06 10:36:21;;;;;;;6.53;4.70;;;10.50;62.50;;;;;;5112882;28;20245;-75
2023/04/06 10:38:53;;;;;;;6.87;4.73;;;11.50;57.40;;;;;;5114137;28;20167;-75
2023/04/06 10:41:20;;;;;;;6.17;4.23;;;12.00;57.40;;;;;;5114305;28;20598;-75
2023/04/06 10:43:56;;;;;;;4.43;4.03;;;12.70;55.90;;;;;;5113488;28;20192;-78
2023/04/06 10:46:26;;;;;;;11.30;4.50;;;12.40;52.50;;;;;;5112941;28;20648;-77
2023/04/06 10:48:52;;;;;;;5.57;4.23;;;12.20;53.60;;;;;;5112917;28;20173;-77
2023/04/06 10:51:20;;;;;;;5.10;4.20;;;12.60;57.40;;;;;;5114001;28;20171;-77
2023/04/06 10:53:48;;;;;;;4.70;4.30;;;13.30;61.70;;;;;;5113995;28;20555;-76
2023/04/06 10:56:16;;;;;;;6.37;4.30;;;13.90;52.00;;;;;;5113993;28;20222;-77
2023/04/06 10:58:46;;;;;;;6.13;4.00;;;14.00;50.40;;;;;;5113288;28;20215;-77
2023/04/06 11:01:13;;;;;;;6.03;4.70;;;13.80;52.60;;;;;;5113681;28;20193;-78
2023/04/06 11:03:47;;;;;;;4.73;4.23;;;13.50;52.30;;;;;;5113929;28;20190;-77
2023/04/06 11:06:20;;;;;;;4.37;3.97;;;13.50;54.30;;;;;;5112679;28;20223;-77
2023/04/06 11:08:46;;;;;;;8.10;4.90;;;14.00;52.70;;;;;;5113976;28;20172;-77
2023/04/06 11:11:17;;;;;;;5.57;4.50;;;14.50;54.20;;;;;;5113742;28;20170;-77
2023/04/06 11:13:57;;;;;;;4.50;4.10;;;14.60;51.80;;;;;;5112570;28;20195;-77
2023/04/06 11:16:28;;;;;;;5.30;4.60;;;14.80;52.00;;;;;;5112444;28;20200;-77
2023/04/06 11:18:59;;;;;;;4.53;3.77;;;14.70;49.90;;;;;;5114502;28;20190;-78
2023/04/06 11:21:36;;;;;;;5.67;4.23;;;14.40;50.20;;;;;;5114104;28;20167;-78
2023/04/06 11:24:22;;;;;;;5.80;3.87;;;14.50;55.00;;;;;;5114743;28;20528;-77
2023/04/06 11:26:51;;;;;;;4.70;4.20;;;14.90;52.80;;;;;;5113386;28;20209;-77
2023/04/06 11:29:18;;;;;;;5.57;4.13;;;14.80;53.00;;;;;;5112386;28;20205;-77
2023/04/06 11:32:01;;;;;;;5.50;3.47;;;15.10;52.40;;;;;;5112328;28;20557;-77
2023/04/06 11:34:30;;;;;;;4.73;3.70;;;15.60;51.20;;;;;;5113683;28;20168;-77
2023/04/06 11:36:58;;;;;;;4.97;4.23;;;14.70;47.80;;;;;;5113682;28;20193;-78
2023/04/06 11:39:26;;;;;;;4.07;3.53;;;14.70;50.00;;;;;;5113756;28;20212;-78
2023/04/06 11:41:59;;;;;;;4.63;3.67;;;15.00;47.30;;;;;;5113539;28;20236;-77
2023/04/06 11:44:49;;;;;;;6.00;4.40;;;15.30;48.30;;;;;;5117842;28;20160;-77
2023/04/06 11:47:15;;;;;;;4.40;3.80;;;15.50;49.50;;;;;;5117592;28;20155;-77
2023/04/06 11:49:42;;;;;;;4.33;3.93;;;16.10;51.50;;;;;;5117694;28;20168;-77
2023/04/06 11:52:22;;;;;;;4.70;4.10;;;16.20;49.00;;;;;;5117582;28;20557;-77
2023/04/06 11:54:49;;;;;;;4.43;4.10;;;15.70;46.60;;;;;;5117112;28;20209;-76
2023/04/06 11:57:16;;;;;;;5.30;4.47;;;14.90;47.20;;;;;;5116008;28;20175;-76
2023/04/06 11:59:42;;;;;;;7.00;4.20;;;14.60;49.20;;;;;;5115833;28;20176;-76
2023/04/06 12:02:08;;;;;;;4.70;4.20;;;14.70;50.10;;;;;;5117385;28;20648;-77
2023/04/06 12:04:35;;;;;;;4.67;4.00;;;14.80;45.50;;;;;;5117493;28;20197;-78
2023/04/06 12:07:01;;;;;;;4.07;3.67;;;14.40;49.20;;;;;;5116199;28;20221;-78
2023/04/06 12:09:27;;;;;;;6.47;4.20;;;14.60;48.60;;;;;;5117269;28;20196;-77
2023/04/06 12:11:52;;;;;;;5.20;4.00;;;15.50;50.30;;;;;;5117634;28;20191;-77
2023/04/06 12:14:18;;;;;;;4.33;3.70;;;16.40;46.10;;;;;;5117087;28;20172;-77
2023/04/06 12:16:44;;;;;;;4.33;3.80;;;16.40;47.30;;;;;;5118055;28;20167;-77
2023/04/06 12:19:10;;;;;;;5.17;4.03;;;15.60;45.70;;;;;;5117396;28;20167;-77
2023/04/06 12:21:40;;;;;;;4.70;4.27;;;14.50;45.30;;;;;;5116880;28;20195;-79
2023/04/06 12:24:06;;;;;;;4.90;4.40;;;13.30;45.90;;;;;;5116738;28;20252;-77
2023/04/06 12:26:32;;;;;;;6.77;4.87;;;13.50;49.10;;;;;;5116733;28;20256;-78
2023/04/06 12:29:06;;;;;;;6.40;4.77;;;14.20;48.00;;;;;;5115418;28;20183;-77
2023/04/06 12:31:34;;;;;;;5.93;5.33;;;15.30;47.50;;;;;;5114826;28;20699;-77
2023/04/06 12:34:02;;;;;;;5.97;5.37;;;15.30;47.20;;;;;;5116109;28;20244;-77
2023/04/06 12:36:27;;;;;;;6.47;4.80;;;15.70;47.80;;;;;;5116356;28;20199;-77
2023/04/06 12:38:53;;;;;;;6.67;5.60;;;16.40;50.60;;;;;;5116401;28;20198;-78
2023/04/06 12:41:19;;;;;;;8.30;6.00;;;17.40;48.70;;;;;;5116722;28;20547;-77
2023/04/06 12:43:45;;;;;;;5.37;4.37;;;16.70;45.00;;;;;;5116028;28;20208;-77
2023/04/06 12:46:11;;;;;;;5.50;4.57;;;15.60;43.90;;;;;;5117113;28;20168;-78
2023/04/06 12:48:38;;;;;;;4.43;4.03;;;15.80;45.80;;;;;;5120619;28;20176;-78
2023/04/06 12:51:05;;;;;;;5.67;5.07;;;16.10;44.10;;;;;;5120560;28;20179;-77
2023/04/06 12:53:32;;;;;;;4.80;4.40;;;16.30;44.40;;;;;;5116627;28;20187;-77
2023/04/06 12:55:58;;;;;;;5.30;4.80;;;16.20;45.10;;;;;;5117339;28;20234;-77
2023/04/06 12:58:35;;;;;;;5.03;4.53;;;16.70;45.30;;;;;;5117370;28;20235;-77
2023/04/06 13:01:06;;;;;;;4.43;4.03;;;17.10;43.70;;;;;;5118793;28;20153;-77
2023/04/06 13:03:32;;;;;;;4.67;4.27;;;17.40;43.40;;;;;;5120838;28;20668;-78
2023/04/06 13:06:00;;;;;;;4.83;4.30;;;16.80;41.50;;;;;;5116522;28;20168;-78
2023/04/06 13:08:27;;;;;;;4.67;3.80;;;17.40;44.50;;;;;;5115650;28;20177;-78
2023/04/06 13:10:53;;;;;;;5.93;3.80;;;17.40;41.50;;;;;;5117646;28;20244;-77
2023/04/06 13:13:27;;;;;;;4.27;3.87;;;16.20;40.60;;;;;;5116439;28;20196;-78
2023/04/06 13:15:55;;;;;;;3.73;3.33;;;16.40;41.20;;;;;;5114867;28;20199;-78
2023/04/06 13:18:22;;;;;;;3.47;3.17;;;16.70;39.50;;;;;;5114422;28;20264;-77
2023/04/06 13:20:48;;;;;;;5.40;3.87;;;16.80;41.20;;;;;;5114126;28;20182;-77
2023/04/06 13:23:15;;;;;;;5.37;4.17;;;17.80;44.60;;;;;;5115385;28;20192;-77
2023/04/06 13:25:40;;;;;;;3.67;3.37;;;18.20;41.40;;;;;;5115670;28;20173;-77
2023/04/06 13:28:07;;;;;;;4.23;3.83;;;17.80;41.50;;;;;;5115846;28;20543;-77
2023/04/06 13:30:32;;;;;;;7.97;4.27;;;18.00;42.30;;;;;;5115391;28;20251;-77
2023/04/06 13:32:58;;;;;;;5.03;3.93;;;18.30;42.90;;;;;;5115743;28;20612;-77
2023/04/06 13:35:24;;;;;;;5.93;4.63;;;18.50;42.70;;;;;;5114154;28;20207;-77
2023/04/06 13:37:52;;;;;;;5.27;4.77;;;18.30;42.70;;;;;;5115798;28;20187;-77
2023/04/06 13:40:18;;;;;;;4.80;4.30;;;17.40;40.90;;;;;;5113842;28;20173;-77
2023/04/06 13:42:44;;;;;;;7.90;4.10;;;17.00;41.40;;;;;;5113901;28;20196;-78
2023/04/06 13:45:11;;;;;;;5.87;4.40;;;17.40;45.50;;;;;;5115236;28;20185;-77
2023/04/06 13:47:36;;;;;;;4.67;3.80;;;18.50;45.60;;;;;;5113963;28;20593;-78
2023/04/06 13:50:03;;;;;;;4.87;4.20;;;18.60;43.20;;;;;;5114559;28;20677;-78
2023/04/06 13:52:29;;;;;;;5.13;4.63;;;18.70;41.30;;;;;;5116461;28;20195;-78
2023/04/06 13:54:55;;;;;;;4.83;4.37;;;18.70;43.00;;;;;;5116584;28;20211;-78
2023/04/06 13:57:21;;;;;;;7.90;4.60;;;18.90;43.90;;;;;;5114590;28;20193;-78
2023/04/06 13:59:47;;;;;;;7.20;4.87;;;18.60;42.60;;;;;;5114950;28;20252;-77
2023/04/06 14:02:13;;;;;;;5.20;4.70;;;17.30;43.50;;;;;;5115390;28;20207;-77
2023/04/06 14:04:39;;;;;;;4.77;4.27;;;15.80;42.50;;;;;;5114121;28;20624;-77
2023/04/06 14:07:07;;;;;;;4.50;4.10;;;15.00;43.70;;;;;;5113563;28;20267;-77
2023/04/06 14:09:32;;;;;;;5.97;4.20;;;15.70;42.90;;;;;;5113483;28;20203;-77
2023/04/06 14:11:58;;;;;;;4.20;3.80;;;16.00;43.50;;;;;;5114447;28;20237;-77
2023/04/06 14:14:24;;;;;;;5.70;4.30;;;16.80;42.20;;;;;;5114685;28;20168;-77
2023/04/06 14:16:50;;;;;;;4.10;3.70;;;17.70;43.60;;;;;;5113213;28;20659;-78
2023/04/06 14:19:20;;;;;;;5.17;4.47;;;18.00;40.20;;;;;;5114434;28;20191;-77
2023/04/06 14:21:46;;;;;;;4.73;4.33;;;17.10;42.10;;;;;;5114224;28;20177;-77
2023/04/06 14:24:13;;;;;;;4.63;4.20;;;17.90;45.40;;;;;;5114480;28;20164;-78
2023/04/06 14:26:41;;;;;;;5.00;4.47;;;18.20;42.40;;;;;;5114561;28;20187;-78
2023/04/06 14:29:07;;;;;;;5.60;5.07;;;15.90;44.30;;;;;;5114675;28;20167;-77
2023/04/06 14:31:33;;;;;;;4.67;4.17;;;14.60;46.30;;;;;;5114142;28;20167;-77
2023/04/06 14:34:02;;;;;;;4.50;4.10;;;15.20;47.40;;;;;;5113510;28;20183;-77
2023/04/06 14:36:29;;;;;;;6.03;4.70;;;16.10;45.30;;;;;;5114618;28;20201;-77
2023/04/06 14:38:57;;;;;;;5.20;4.70;;;16.30;44.30;;;;;;5113086;28;20171;-77
2023/04/06 14:41:23;;;;;;;4.77;4.37;;;16.90;45.80;;;;;;5113957;28;20171;-77
2023/04/06 14:43:50;;;;;;;6.33;4.43;;;16.90;45.00;;;;;;5114135;28;20571;-77
2023/04/06 14:46:16;;;;;;;4.63;4.20;;;17.40;44.90;;;;;;5112895;28;20651;-77
2023/04/06 14:48:42;;;;;;;6.73;4.43;;;17.60;43.80;;;;;;5112885;28;20174;-77
2023/04/06 14:51:07;;;;;;;4.77;4.30;;;17.10;46.10;;;;;;5113977;28;20679;-77
2023/04/06 14:53:33;;;;;;;6.40;4.50;;;16.80;44.10;;;;;;5114052;28;20218;-77
2023/04/06 14:55:59;;;;;;;4.80;3.77;;;15.90;45.30;;;;;;5113865;28;20276;-77
2023/04/06 14:58:25;;;;;;;4.77;4.20;;;16.30;44.40;;;;;;5113993;28;20179;-77
2023/04/06 15:00:58;;;;;;;5.40;4.30;;;16.60;43.60;;;;;;5112641;28;20199;-77
2023/04/06 15:03:28;;;;;;;8.93;3.90;;;16.30;42.60;;;;;;5113972;28;20195;-77
2023/04/06 15:05:55;;;;;;;6.90;4.60;;;16.40;44.50;;;;;;5112741;28;20184;-77
2023/04/06 15:08:21;;;;;;;6.33;5.23;;;16.40;41.70;;;;;;5114112;28;20174;-77
2023/04/06 15:10:50;;;;;;;5.53;4.10;;;16.50;42.40;;;;;;5113619;28;20231;-77
2023/04/06 15:13:16;;;;;;;5.00;4.47;;;16.00;40.50;;;;;;5113797;28;20191;-77
2023/04/06 15:15:42;;;;;;;7.20;4.13;;;15.50;41.70;;;;;;5113775;28;20277;-77
2023/04/06 15:18:09;;;;;;;4.53;3.80;;;14.80;41.40;;;;;;5117442;28;20270;-77
2023/04/06 15:20:35;;;;;;;5.13;3.90;;;14.40;42.30;;;;;;5117850;28;20170;-77
2023/04/06 15:23:02;;;;;;;6.43;4.10;;;14.80;44.60;;;;;;5117903;28;20524;-77
2023/04/06 15:25:28;;;;;;;6.40;4.57;;;14.40;41.80;;;;;;5117298;28;20661;-77
2023/04/06 15:27:54;;;;;;;5.97;4.70;;;13.80;42.80;;;;;;5117801;28;20172;-77
2023/04/06 15:30:20;;;;;;;5.03;4.43;;;13.40;44.20;;;;;;5117729;28;20174;-77
2023/04/06 15:32:56;;;;;;;6.27;4.40;;;13.20;42.00;;;;;;5117840;28;20196;-77
2023/04/06 15:35:21;;;;;;;4.37;3.97;;;13.10;45.60;;;;;;5117654;28;20201;-77
2023/04/06 15:37:47;;;;;;;4.87;4.40;;;13.40;44.40;;;;;;5117621;28;20222;-77
2023/04/06 15:40:15;;;;;;;5.30;4.17;;;13.60;43.10;;;;;;5117268;28;20176;-79
2023/04/06 15:42:42;;;;;;;5.93;4.93;;;13.90;43.70;;;;;;5116423;28;20200;-76
2023/04/06 15:45:10;;;;;;;6.50;5.33;;;14.10;43.20;;;;;;5117439;28;20166;-77
2023/04/06 15:47:39;;;;;;;5.47;4.07;;;13.70;43.50;;;;;;5116252;28;20177;-77
2023/04/06 15:50:06;;;;;;;8.83;6.23;;;12.90;44.00;;;;;;5115832;28;20183;-77
2023/04/06 15:52:31;;;;;;;7.60;5.40;;;12.30;45.10;;;;;;5116284;28;20642;-77
2023/04/06 15:54:57;;;;;;;8.87;5.83;;;12.00;47.70;;;;;;5117277;28;20290;-77
2023/04/06 15:57:23;;;;;;;92.70;46.80;;;11.80;46.20;;;;;;5117140;28;20164;-77
2023/04/06 15:59:49;;;;;;;323.90;178.60;;;11.60;46.60;;;;;;5117178;28;20203;-76
2023/04/06 16:02:15;;;;;;;17.47;13.57;;;11.50;45.40;;;;;;5117057;28;20641;-77
2023/04/06 16:04:40;;;;;;;6.47;4.87;;;11.30;46.20;;;;;;5117270;28;20172;-77
2023/04/06 16:07:06;;;;;;;8.57;4.80;;;11.10;46.60;;;;;;5117341;28;20171;-77
2023/04/06 16:09:32;;;;;;;6.57;4.63;;;11.10;47.40;;;;;;5116987;28;20176;-76
2023/04/06 16:11:57;;;;;;;6.67;4.37;;;11.10;46.90;;;;;;5117414;28;20274;-76
2023/04/06 16:14:23;;;;;;;4.47;3.63;;;11.00;46.60;;;;;;5116864;28;20243;-77
2023/04/06 16:16:49;;;;;;;5.80;4.23;;;10.80;48.00;;;;;;5117397;28;20250;-76
2023/04/06 16:19:15;;;;;;;8.60;4.80;;;10.80;48.70;;;;;;5117340;28;20358;-77
2023/04/06 16:21:41;;;;;;;7.83;4.10;;;10.80;47.70;;;;;;5116572;28;20250;-77
2023/04/06 16:24:07;;;;;;;5.00;3.53;;;10.70;47.60;;;;;;5114425;28;20547;-77
2023/04/06 16:26:33;;;;;;;7.90;3.90;;;10.60;48.10;;;;;;5116717;28;20167;-77
2023/04/06 16:29:00;;;;;;;5.17;3.63;;;10.50;48.30;;;;;;5115043;28;20186;-77
2023/04/06 16:31:26;;;;;;;4.90;3.67;;;10.50;49.10;;;;;;5116546;28;20191;-77
2023/04/06 16:33:55;;;;;;;6.30;4.70;;;10.40;48.40;;;;;;5116642;28;20260;-77
2023/04/06 16:36:30;;;;;;;4.87;3.87;;;10.20;49.30;;;;;;5116521;28;20301;-77
2023/04/06 16:38:56;;;;;;;5.87;3.90;;;10.20;49.70;;;;;;5116544;28;20163;-77
2023/04/06 16:41:22;;;;;;;6.07;4.17;;;10.10;48.80;;;;;;5115009;28;20186;-77
2023/04/06 16:43:48;;;;;;;4.67;3.70;;;10.10;49.80;;;;;;5116872;28;20191;-78
2023/04/06 16:46:14;;;;;;;7.60;4.17;;;10.10;49.60;;;;;;5117805;28;20178;-78
2023/04/06 16:48:40;;;;;;;4.63;3.83;;;10.00;50.00;;;;;;5118677;28;20175;-78
2023/04/06 16:51:06;;;;;;;6.00;4.77;;;10.00;49.70;;;;;;5118336;28;20185;-78
2023/04/06 16:53:32;;;;;;;5.37;4.37;;;9.90;50.10;;;;;;5116670;28;20726;-78
2023/04/06 16:55:58;;;;;;;5.67;3.90;;;9.90;51.10;;;;;;5118405;28;20207;-78
2023/04/06 16:58:24;;;;;;;5.47;3.80;;;9.90;52.60;;;;;;5117010;28;20205;-78
2023/04/06 17:00:49;;;;;;;9.07;3.97;;;9.90;51.50;;;;;;5118304;28;20219;-78
2023/04/06 17:03:15;;;;;;;7.33;4.37;;;9.80;51.90;;;;;;5120781;28;20285;-77
2023/04/06 17:05:41;;;;;;;29.20;19.97;;;9.80;54.90;;;;;;5120448;28;20178;-78
2023/04/06 17:08:06;;;;;;;10.30;6.90;;;9.80;51.40;;;;;;5117396;28;20167;-78
2023/04/06 17:10:32;;;;;;;9.57;7.83;;;9.70;51.50;;;;;;5116106;28;20261;-77
2023/04/06 17:12:57;;;;;;;7.73;6.13;;;9.70;53.00;;;;;;5115855;28;20198;-77
